Time;durP1;ratioP1;P1;durP2;ratioP2;P2;SDS_P1;SDS_P2;PMS_P1;PMS_P2;Temp;Humidity;BMP_temperature;BMP_pressure;BME280_temperature;BME280_humidity;BME280_pressure;Samples;Min_cycle;Max_cycle;Signal;HPM_P1;HPM_P2
2020/12/15 00:00:31;;;;;;;0.30;0.30;;;5.50;99.90;;;;;;5033432;28;20224;-71
2020/12/15 00:02:56;;;;;;;0.40;0.40;;;5.50;99.90;;;;;;5032736;28;20263;-71
2020/12/15 00:05:22;;;;;;;0.40;0.40;;;5.50;99.90;;;;;;5035990;28;20192;-71
2020/12/15 00:07:48;;;;;;;0.40;0.40;;;5.60;99.90;;;;;;5053240;28;20176;-71
2020/12/15 00:10:13;;;;;;;0.30;0.30;;;5.60;99.90;;;;;;5049665;28;20795;-73
2020/12/15 00:12:41;;;;;;;0.40;0.40;;;5.60;99.90;;;;;;5033008;28;20270;-71
2020/12/15 00:15:07;;;;;;;0.30;0.30;;;5.60;99.90;;;;;;5032753;28;20262;-71
2020/12/15 00:17:33;;;;;;;0.40;0.40;;;5.60;99.90;;;;;;5032912;28;20284;-70
2020/12/15 00:19:58;;;;;;;0.50;0.50;;;5.50;99.90;;;;;;5032763;28;20488;-70
2020/12/15 00:22:24;;;;;;;0.30;0.30;;;5.60;99.90;;;;;;5047808;28;20191;-70
2020/12/15 00:24:50;;;;;;;0.40;0.40;;;5.60;99.90;;;;;;5035232;28;20193;-71
2020/12/15 00:27:15;;;;;;;0.53;0.53;;;5.60;99.90;;;;;;5054884;28;20216;-71
2020/12/15 00:29:41;;;;;;;0.30;0.30;;;5.60;99.90;;;;;;5054599;28;20221;-72
2020/12/15 00:32:09;;;;;;;0.30;0.30;;;5.60;99.90;;;;;;5052730;28;20478;-72
2020/12/15 00:34:34;;;;;;;0.30;0.20;;;5.60;99.90;;;;;;5056377;28;20479;-71
2020/12/15 00:37:00;;;;;;;0.33;0.33;;;5.50;99.90;;;;;;5040568;28;20295;-71
2020/12/15 00:39:26;;;;;;;0.60;0.60;;;5.40;99.90;;;;;;5036159;28;20171;-71
2020/12/15 00:41:51;;;;;;;0.30;0.30;;;5.40;99.90;;;;;;5050093;28;20537;-71
2020/12/15 00:44:17;;;;;;;0.30;0.30;;;5.40;99.90;;;;;;5055960;28;20291;-71
2020/12/15 00:46:47;;;;;;;0.30;0.30;;;5.40;99.90;;;;;;5048427;28;20199;-71
2020/12/15 00:49:13;;;;;;;0.30;0.30;;;5.30;99.90;;;;;;5056235;28;20781;-71
2020/12/15 00:51:39;;;;;;;0.40;0.40;;;5.30;99.90;;;;;;5042466;28;20280;-72
2020/12/15 00:54:04;;;;;;;0.40;0.40;;;5.30;99.90;;;;;;5034794;28;20186;-72
2020/12/15 00:56:30;;;;;;;0.30;0.30;;;5.40;99.90;;;;;;5046542;28;20697;-72
2020/12/15 00:58:57;;;;;;;0.40;0.40;;;5.40;99.90;;;;;;5055923;28;20173;-71
2020/12/15 01:01:22;;;;;;;0.40;0.40;;;5.50;99.90;;;;;;5045624;28;20193;-72
2020/12/15 01:03:48;;;;;;;0.30;0.30;;;5.50;99.90;;;;;;5055867;28;20524;-70
2020/12/15 01:06:14;;;;;;;0.30;0.30;;;5.50;99.90;;;;;;5046900;28;20185;-74
2020/12/15 01:08:40;;;;;;;0.30;0.30;;;5.60;99.90;;;;;;5050152;28;20257;-70
2020/12/15 01:11:05;;;;;;;0.30;0.30;;;5.60;99.90;;;;;;5037624;28;20209;-71
2020/12/15 01:13:31;;;;;;;0.30;0.30;;;5.60;99.90;;;;;;5051555;28;20205;-72
2020/12/15 01:15:57;;;;;;;0.30;0.30;;;5.60;99.90;;;;;;5036848;28;20210;-71
2020/12/15 01:18:22;;;;;;;0.30;0.30;;;5.60;99.90;;;;;;5035678;28;20175;-72
2020/12/15 01:20:48;;;;;;;0.40;0.40;;;5.70;99.90;;;;;;5040335;28;20193;-71
2020/12/15 01:23:13;;;;;;;0.70;0.70;;;5.80;99.90;;;;;;5055243;28;20186;-71
2020/12/15 01:25:39;;;;;;;0.40;0.40;;;5.80;99.90;;;;;;5051682;28;20561;-72
2020/12/15 01:28:05;;;;;;;0.30;0.30;;;5.80;99.90;;;;;;5035754;28;20181;-71
2020/12/15 01:30:30;;;;;;;0.50;0.50;;;5.80;99.90;;;;;;5037311;28;20315;-71
2020/12/15 01:32:56;;;;;;;0.40;0.40;;;5.90;99.90;;;;;;5053385;28;20209;-71
2020/12/15 01:35:21;;;;;;;0.30;0.30;;;5.90;99.90;;;;;;5039247;28;20174;-71
2020/12/15 01:37:48;;;;;;;0.30;0.30;;;6.00;99.90;;;;;;5053774;28;20257;-71
2020/12/15 01:40:13;;;;;;;0.40;0.40;;;6.00;99.90;;;;;;5054822;28;20168;-71
2020/12/15 01:42:39;;;;;;;0.30;0.30;;;6.10;99.90;;;;;;5035812;28;20214;-71
2020/12/15 01:45:06;;;;;;;0.30;0.30;;;6.10;99.90;;;;;;5035250;28;20162;-71
2020/12/15 01:47:32;;;;;;;0.30;0.30;;;6.10;99.90;;;;;;5051982;28;20434;-71
2020/12/15 01:49:58;;;;;;;0.50;0.50;;;6.20;99.90;;;;;;5054177;28;20648;-71
2020/12/15 01:52:27;;;;;;;0.30;0.30;;;6.10;99.90;;;;;;5037688;28;20268;-71
2020/12/15 01:54:53;;;;;;;0.30;0.30;;;6.10;99.90;;;;;;5034945;28;20161;-71
2020/12/15 01:57:19;;;;;;;0.30;0.20;;;6.20;99.90;;;;;;5049976;28;20215;-71
2020/12/15 01:59:45;;;;;;;0.30;0.30;;;6.20;99.90;;;;;;5054432;28;20439;-70
2020/12/15 02:02:11;;;;;;;0.40;0.40;;;6.20;99.90;;;;;;5052772;28;20515;-69
2020/12/15 02:04:36;;;;;;;0.30;0.30;;;6.20;99.90;;;;;;5041491;28;20710;-71
2020/12/15 02:07:02;;;;;;;7.77;1.03;;;6.10;99.90;;;;;;5049270;28;20542;-71
2020/12/15 02:09:29;;;;;;;0.30;0.30;;;6.20;99.90;;;;;;5054454;28;20260;-71
2020/12/15 02:11:55;;;;;;;0.52;0.52;;;6.20;99.90;;;;;;5039313;28;20444;-71
2020/12/15 02:14:21;;;;;;;0.30;0.30;;;6.20;99.90;;;;;;5034487;28;20566;-71
2020/12/15 02:16:52;;;;;;;2.15;0.90;;;6.20;99.90;;;;;;5034320;28;20781;-71
2020/12/15 02:19:18;;;;;;;0.30;0.30;;;6.20;99.90;;;;;;5033100;28;20172;-71
2020/12/15 02:22:02;;;;;;;0.90;0.85;;;6.20;99.90;;;;;;5039472;28;20667;-71
2020/12/15 02:24:28;;;;;;;0.30;0.30;;;6.20;99.90;;;;;;5053232;28;20589;-71
2020/12/15 02:26:54;;;;;;;0.30;0.30;;;6.20;99.90;;;;;;5041595;28;20608;-71
2020/12/15 02:29:19;;;;;;;0.30;0.30;;;6.30;99.90;;;;;;5034154;28;20179;-72
2020/12/15 02:31:46;;;;;;;1.40;1.40;;;6.30;99.90;;;;;;5044856;28;20872;-71
2020/12/15 02:34:11;;;;;;;0.63;0.63;;;6.20;99.90;;;;;;5044574;28;20186;-70
2020/12/15 02:36:37;;;;;;;0.30;0.30;;;6.20;99.90;;;;;;5043471;28;20193;-71
2020/12/15 02:39:14;;;;;;;3.53;0.80;;;6.10;99.90;;;;;;5054188;28;20411;-70
2020/12/15 02:41:40;;;;;;;0.40;0.40;;;6.10;99.90;;;;;;5045641;28;20436;-70
2020/12/15 02:44:07;;;;;;;0.30;0.30;;;6.10;99.90;;;;;;5033897;28;20680;-70
2020/12/15 02:46:34;;;;;;;0.30;0.30;;;6.10;99.90;;;;;;5034673;28;20174;-70
2020/12/15 02:48:59;;;;;;;0.30;0.30;;;6.10;99.90;;;;;;5034264;28;20189;-70
2020/12/15 02:51:26;;;;;;;0.30;0.30;;;6.10;99.90;;;;;;5042204;28;20218;-70
2020/12/15 02:53:52;;;;;;;0.30;0.30;;;6.10;99.90;;;;;;5053320;28;20427;-71
2020/12/15 02:56:27;;;;;;;0.30;0.30;;;6.20;99.90;;;;;;5033437;28;20205;-70
2020/12/15 02:58:53;;;;;;;0.30;0.30;;;6.20;99.90;;;;;;5031455;28;20245;-69
2020/12/15 03:01:20;;;;;;;0.30;0.30;;;6.10;99.90;;;;;;5033295;28;20202;-72
2020/12/15 03:03:46;;;;;;;0.30;0.30;;;6.10;99.90;;;;;;5047905;28;20173;-69
2020/12/15 03:06:14;;;;;;;0.30;0.30;;;6.10;99.90;;;;;;5053550;28;20212;-72
2020/12/15 03:08:39;;;;;;;0.30;0.30;;;6.10;99.90;;;;;;5043495;28;20190;-71
2020/12/15 03:11:06;;;;;;;0.30;0.30;;;6.10;99.90;;;;;;5032983;28;20205;-71
2020/12/15 03:13:33;;;;;;;0.30;0.30;;;6.10;99.90;;;;;;5041152;28;20158;-72
2020/12/15 03:15:58;;;;;;;0.30;0.30;;;6.20;99.90;;;;;;5033418;28;20197;-72
2020/12/15 03:18:24;;;;;;;0.30;0.30;;;6.10;99.90;;;;;;5052893;28;20174;-72
2020/12/15 03:20:50;;;;;;;0.43;0.43;;;6.10;99.90;;;;;;5042494;28;20174;-72
2020/12/15 03:23:20;;;;;;;0.50;0.50;;;6.20;99.90;;;;;;5050774;28;20185;-70
2020/12/15 03:25:46;;;;;;;0.30;0.30;;;6.10;99.90;;;;;;5053695;28;20172;-70
2020/12/15 03:28:12;;;;;;;0.30;0.30;;;6.00;99.90;;;;;;5035384;28;20174;-70
2020/12/15 03:30:37;;;;;;;1.00;0.90;;;5.90;99.90;;;;;;5032777;28;20648;-70
2020/12/15 03:33:04;;;;;;;0.60;0.60;;;5.80;99.90;;;;;;5048690;28;20444;-70
2020/12/15 03:35:32;;;;;;;0.35;0.35;;;5.80;99.90;;;;;;5043198;28;20173;-70
2020/12/15 03:37:58;;;;;;;0.30;0.30;;;5.80;99.90;;;;;;5046823;28;20203;-70
2020/12/15 03:40:24;;;;;;;0.30;0.30;;;5.80;99.90;;;;;;5052682;28;20173;-70
2020/12/15 03:42:50;;;;;;;0.30;0.30;;;5.80;99.90;;;;;;5038835;28;20190;-70
2020/12/15 03:45:17;;;;;;;0.30;0.30;;;5.80;99.90;;;;;;5043788;28;20416;-72
2020/12/15 03:47:43;;;;;;;0.30;0.30;;;5.90;99.90;;;;;;5053053;28;20446;-71
2020/12/15 03:50:09;;;;;;;0.30;0.30;;;5.90;99.90;;;;;;5042168;28;20568;-71
2020/12/15 03:52:38;;;;;;;0.40;0.40;;;5.90;99.90;;;;;;5032823;28;20214;-71
2020/12/15 03:55:05;;;;;;;0.40;0.40;;;5.90;99.90;;;;;;5041468;28;20257;-71
2020/12/15 03:57:31;;;;;;;3.22;2.25;;;5.90;99.90;;;;;;5032959;28;20190;-71
2020/12/15 03:59:57;;;;;;;0.30;0.30;;;5.90;99.90;;;;;;5042378;28;20186;-71
2020/12/15 04:02:23;;;;;;;1.43;1.43;;;5.90;99.90;;;;;;5056690;28;20846;-71
2020/12/15 04:04:49;;;;;;;1.37;1.27;;;6.00;99.90;;;;;;5050712;28;20421;-71
2020/12/15 04:07:15;;;;;;;0.30;0.30;;;6.00;99.90;;;;;;5037004;28;20404;-70
2020/12/15 04:09:40;;;;;;;0.30;0.30;;;6.00;99.90;;;;;;5037631;28;20184;-74
2020/12/15 04:12:06;;;;;;;0.37;0.37;;;6.00;99.90;;;;;;5036673;28;20668;-71
2020/12/15 04:14:32;;;;;;;0.30;0.30;;;6.00;99.90;;;;;;5038316;28;20652;-73
2020/12/15 04:16:58;;;;;;;0.40;0.40;;;6.00;99.90;;;;;;5056615;28;20269;-71
2020/12/15 04:19:23;;;;;;;0.77;0.77;;;6.00;99.90;;;;;;5055894;28;20765;-71
2020/12/15 04:21:49;;;;;;;0.33;0.33;;;6.00;99.90;;;;;;5035931;28;20201;-71
2020/12/15 04:24:14;;;;;;;0.40;0.40;;;6.00;99.90;;;;;;5036666;28;20244;-71
2020/12/15 04:26:40;;;;;;;0.30;0.30;;;6.00;99.90;;;;;;5054348;28;20538;-72
2020/12/15 04:29:05;;;;;;;0.40;0.40;;;6.00;99.90;;;;;;5056077;28;20260;-71
2020/12/15 04:31:31;;;;;;;0.40;0.40;;;6.00;99.90;;;;;;5038253;28;20206;-72
2020/12/15 04:33:57;;;;;;;0.37;0.37;;;6.10;99.90;;;;;;5036674;28;20529;-71
2020/12/15 04:36:24;;;;;;;0.30;0.20;;;6.20;99.90;;;;;;5051572;28;20689;-71
2020/12/15 04:38:49;;;;;;;0.30;0.30;;;6.20;99.90;;;;;;5056169;28;20571;-73
2020/12/15 04:41:16;;;;;;;0.30;0.20;;;6.20;99.90;;;;;;5040530;28;20190;-72
2020/12/15 04:43:42;;;;;;;0.40;0.40;;;6.20;99.90;;;;;;5050628;28;20184;-70
2020/12/15 04:46:11;;;;;;;0.30;0.30;;;6.20;99.90;;;;;;5042456;28;20183;-70
2020/12/15 04:48:43;;;;;;;0.30;0.30;;;6.30;99.90;;;;;;5036247;28;20206;-70
2020/12/15 04:51:12;;;;;;;0.40;0.40;;;6.30;99.90;;;;;;5036664;28;20202;-71
2020/12/15 04:53:44;;;;;;;0.73;0.73;;;6.40;99.90;;;;;;5035866;28;20646;-70
2020/12/15 04:56:28;;;;;;;1.60;1.50;;;6.40;99.90;;;;;;5050813;28;20206;-69
2020/12/15 04:58:57;;;;;;;0.30;0.30;;;6.40;99.90;;;;;;5036955;28;20183;-70
2020/12/15 05:01:24;;;;;;;2.25;0.90;;;6.50;99.90;;;;;;5048822;28;20197;-69
2020/12/15 05:03:52;;;;;;;0.30;0.30;;;6.50;99.90;;;;;;5055602;28;20165;-70
2020/12/15 05:06:26;;;;;;;0.40;0.40;;;6.50;99.90;;;;;;5040017;28;20574;-70
2020/12/15 05:08:53;;;;;;;0.40;0.40;;;6.60;99.90;;;;;;5034925;28;20533;-70
2020/12/15 05:11:19;;;;;;;0.40;0.40;;;6.60;99.90;;;;;;5048362;28;20736;-71
2020/12/15 05:13:45;;;;;;;0.30;0.30;;;6.60;99.90;;;;;;5041254;28;20187;-69
2020/12/15 05:16:10;;;;;;;0.47;0.47;;;6.60;99.90;;;;;;5053651;28;20283;-70
2020/12/15 05:18:36;;;;;;;2.43;2.23;;;6.70;99.90;;;;;;5055216;28;20289;-70
2020/12/15 05:21:13;;;;;;;0.50;0.43;;;6.70;99.90;;;;;;5040393;28;20285;-70
2020/12/15 05:23:52;;;;;;;0.50;0.50;;;6.70;99.90;;;;;;5035609;28;20520;-71
2020/12/15 05:26:25;;;;;;;0.40;0.40;;;6.70;99.90;;;;;;5033052;28;20656;-71
2020/12/15 05:29:07;;;;;;;0.30;0.30;;;6.70;99.90;;;;;;5055332;28;20176;-72
2020/12/15 05:31:38;;;;;;;0.30;0.30;;;6.70;99.90;;;;;;5040756;28;20335;-70
2020/12/15 05:34:04;;;;;;;0.40;0.40;;;6.60;99.90;;;;;;5035201;28;20182;-70
2020/12/15 05:36:30;;;;;;;0.40;0.40;;;6.60;99.90;;;;;;5050873;28;20199;-70
2020/12/15 05:39:08;;;;;;;0.30;0.27;;;6.60;99.90;;;;;;5055180;28;20178;-70
2020/12/15 05:41:35;;;;;;;0.30;0.30;;;6.60;99.90;;;;;;5047974;28;20536;-69
2020/12/15 05:44:01;;;;;;;0.30;0.30;;;6.60;99.90;;;;;;5035353;28;20194;-71
2020/12/15 05:46:29;;;;;;;0.60;0.60;;;6.60;99.90;;;;;;5049061;28;20640;-70
2020/12/15 05:49:05;;;;;;;0.30;0.30;;;6.60;99.90;;;;;;5055913;28;20184;-69
2020/12/15 05:51:42;;;;;;;0.30;0.30;;;6.70;99.90;;;;;;5052665;28;20695;-70
2020/12/15 05:54:14;;;;;;;0.30;0.30;;;6.70;99.90;;;;;;5054937;28;20747;-69
2020/12/15 05:56:41;;;;;;;0.65;0.65;;;6.60;99.90;;;;;;5038433;28;20290;-69
2020/12/15 05:59:20;;;;;;;0.30;0.30;;;6.70;99.90;;;;;;5043556;28;20186;-71
2020/12/15 06:01:53;;;;;;;0.40;0.40;;;6.70;99.90;;;;;;5052304;28;20222;-72
2020/12/15 06:04:20;;;;;;;0.30;0.30;;;6.60;99.90;;;;;;5055087;28;20174;-70
2020/12/15 06:06:46;;;;;;;0.38;0.38;;;6.70;99.90;;;;;;5036019;28;20179;-71
2020/12/15 06:09:17;;;;;;;0.50;0.50;;;6.60;99.90;;;;;;5034735;28;20224;-70
2020/12/15 06:11:44;;;;;;;0.30;0.30;;;6.50;99.90;;;;;;5039723;28;20607;-71
2020/12/15 06:14:12;;;;;;;0.60;0.60;;;6.40;99.90;;;;;;5034642;28;20171;-71
2020/12/15 06:16:41;;;;;;;0.30;0.30;;;6.40;99.90;;;;;;5050244;28;20288;-72
2020/12/15 06:19:09;;;;;;;0.30;0.30;;;6.30;99.90;;;;;;5051632;28;20170;-72
2020/12/15 06:21:37;;;;;;;0.30;0.30;;;6.30;99.90;;;;;;5034472;28;20605;-72
2020/12/15 06:24:07;;;;;;;0.30;0.30;;;6.30;99.90;;;;;;5034662;28;20245;-70
2020/12/15 06:26:33;;;;;;;0.70;0.70;;;6.20;99.90;;;;;;5048897;28;20260;-71
2020/12/15 06:29:06;;;;;;;0.73;0.73;;;6.20;99.90;;;;;;5034603;28;20606;-70
2020/12/15 06:31:35;;;;;;;0.38;0.38;;;6.20;99.90;;;;;;5047768;28;20691;-71
2020/12/15 06:34:02;;;;;;;0.30;0.30;;;6.20;99.90;;;;;;5053710;28;20233;-71
2020/12/15 06:36:31;;;;;;;0.45;0.45;;;6.20;99.90;;;;;;5040012;28;20228;-70
2020/12/15 06:38:59;;;;;;;0.40;0.40;;;6.20;99.90;;;;;;5034097;28;20200;-73
2020/12/15 06:41:25;;;;;;;0.30;0.30;;;6.20;99.90;;;;;;5045115;28;20194;-70
2020/12/15 06:43:52;;;;;;;0.40;0.40;;;6.20;99.90;;;;;;5035878;28;20182;-69
2020/12/15 06:46:27;;;;;;;0.30;0.20;;;6.20;99.90;;;;;;5034473;28;20178;-69
2020/12/15 06:48:54;;;;;;;0.30;0.30;;;6.20;99.90;;;;;;5038037;28;20307;-70
2020/12/15 06:51:30;;;;;;;0.30;0.30;;;6.20;99.90;;;;;;5043001;28;20644;-70
2020/12/15 06:54:04;;;;;;;0.30;0.30;;;6.20;99.90;;;;;;5033217;28;20204;-70
2020/12/15 06:56:31;;;;;;;0.30;0.30;;;6.20;99.90;;;;;;5043481;28;20214;-71
2020/12/15 06:59:03;;;;;;;0.30;0.30;;;6.20;99.90;;;;;;5051681;28;20174;-70
2020/12/15 07:01:29;;;;;;;0.30;0.30;;;6.30;99.90;;;;;;5043215;28;20182;-69
2020/12/15 07:03:59;;;;;;;0.30;0.30;;;6.40;99.90;;;;;;5032988;28;20205;-73
2020/12/15 07:06:25;;;;;;;0.50;0.50;;;6.40;99.90;;;;;;5033636;28;20217;-70
2020/12/15 07:09:03;;;;;;;0.30;0.30;;;6.40;99.90;;;;;;5033569;28;20166;-70
2020/12/15 07:11:29;;;;;;;1.23;1.17;;;6.40;99.90;;;;;;5039468;28;20198;-71
2020/12/15 07:14:00;;;;;;;0.50;0.50;;;6.40;99.90;;;;;;5048812;28;20174;-72
2020/12/15 07:16:26;;;;;;;0.30;0.30;;;6.40;99.90;;;;;;5050285;28;20190;-72
2020/12/15 07:18:52;;;;;;;0.30;0.30;;;6.40;99.90;;;;;;5052611;28;20170;-72
2020/12/15 07:21:18;;;;;;;0.30;0.30;;;6.40;99.90;;;;;;5052678;28;20197;-72
2020/12/15 07:23:48;;;;;;;0.70;0.70;;;6.40;99.90;;;;;;5053248;28;20571;-72
2020/12/15 07:26:15;;;;;;;0.30;0.30;;;6.40;99.90;;;;;;5052932;28;20231;-72
2020/12/15 07:28:43;;;;;;;0.35;0.35;;;6.40;99.90;;;;;;5050079;28;20178;-71
2020/12/15 07:31:09;;;;;;;0.30;0.30;;;6.50;99.90;;;;;;5032913;28;20177;-71
2020/12/15 07:33:35;;;;;;;0.30;0.30;;;6.50;99.90;;;;;;5032308;28;20243;-72
2020/12/15 07:36:11;;;;;;;0.57;0.57;;;6.60;99.90;;;;;;5033244;28;20195;-73
2020/12/15 07:38:38;;;;;;;0.40;0.40;;;6.60;99.90;;;;;;5033377;28;20173;-72
2020/12/15 07:41:12;;;;;;;0.30;0.30;;;6.70;99.90;;;;;;5032792;28;20172;-71
2020/12/15 07:43:38;;;;;;;0.30;0.30;;;6.70;99.90;;;;;;5049903;28;20173;-73
2020/12/15 07:46:14;;;;;;;1.95;0.93;;;6.70;99.90;;;;;;5053383;28;20200;-70
2020/12/15 07:48:40;;;;;;;0.30;0.30;;;6.70;99.90;;;;;;5053859;28;20685;-70
2020/12/15 07:51:06;;;;;;;0.50;0.50;;;6.80;99.90;;;;;;5052300;28;20522;-70
2020/12/15 07:53:31;;;;;;;0.97;0.97;;;6.80;99.90;;;;;;5053062;28;20193;-71
2020/12/15 07:56:06;;;;;;;0.70;0.70;;;6.90;99.90;;;;;;5054045;28;20204;-71
2020/12/15 07:58:34;;;;;;;1.95;0.65;;;6.90;99.90;;;;;;5048705;28;20227;-67
2020/12/15 08:00:59;;;;;;;0.30;0.30;;;7.00;99.90;;;;;;5032573;28;20182;-70
2020/12/15 08:03:25;;;;;;;0.53;0.53;;;7.00;99.90;;;;;;5032941;28;20189;-67
2020/12/15 08:05:51;;;;;;;0.30;0.20;;;7.10;99.90;;;;;;5033160;28;20299;-66
2020/12/15 08:08:18;;;;;;;0.57;0.57;;;7.20;99.90;;;;;;5033141;28;20194;-71
2020/12/15 08:10:44;;;;;;;0.30;0.30;;;7.20;99.90;;;;;;5032462;28;20205;-69
2020/12/15 08:13:09;;;;;;;0.30;0.30;;;7.20;99.90;;;;;;5033282;28;20202;-68
2020/12/15 08:15:42;;;;;;;0.30;0.30;;;7.20;99.90;;;;;;5032996;28;20219;-70
2020/12/15 08:18:11;;;;;;;0.38;0.38;;;7.20;99.90;;;;;;5033149;28;20168;-70
2020/12/15 08:20:38;;;;;;;0.40;0.40;;;7.30;99.90;;;;;;5033449;28;20167;-70
2020/12/15 08:23:13;;;;;;;0.40;0.40;;;7.30;99.90;;;;;;5032829;28;20191;-67
2020/12/15 08:25:44;;;;;;;0.30;0.30;;;7.30;99.90;;;;;;5032701;28;20590;-69
2020/12/15 08:28:21;;;;;;;0.30;0.30;;;7.20;99.90;;;;;;5036933;28;20179;-67
2020/12/15 08:30:57;;;;;;;0.40;0.40;;;7.30;99.90;;;;;;5052198;28;20159;-68
2020/12/15 08:33:30;;;;;;;0.77;0.77;;;7.30;99.90;;;;;;5052525;28;20207;-70
2020/12/15 08:35:57;;;;;;;0.30;0.30;;;7.30;99.90;;;;;;5052195;28;20203;-70
2020/12/15 08:38:25;;;;;;;0.30;0.30;;;7.40;99.90;;;;;;5049617;28;20512;-70
2020/12/15 08:40:59;;;;;;;0.30;0.30;;;7.50;99.90;;;;;;5032089;28;20172;-69
2020/12/15 08:43:26;;;;;;;0.40;0.40;;;7.50;99.90;;;;;;5032317;28;20199;-69
2020/12/15 08:45:52;;;;;;;1.60;1.55;;;7.50;99.90;;;;;;5034774;28;20283;-70
2020/12/15 08:48:34;;;;;;;0.30;0.30;;;7.50;99.90;;;;;;5035013;28;20176;-70
2020/12/15 08:51:12;;;;;;;0.30;0.30;;;7.50;99.90;;;;;;5034862;28;20168;-69
2020/12/15 08:53:37;;;;;;;0.30;0.30;;;7.50;99.90;;;;;;5035168;28;20348;-68
2020/12/15 08:56:12;;;;;;;0.40;0.40;;;7.50;99.90;;;;;;5035097;28;20309;-68
2020/12/15 08:58:38;;;;;;;0.30;0.20;;;7.60;99.90;;;;;;5036832;28;20193;-68
2020/12/15 09:01:03;;;;;;;0.30;0.30;;;7.60;99.90;;;;;;5053670;28;20208;-68
2020/12/15 09:03:31;;;;;;;0.70;0.70;;;7.60;99.90;;;;;;5056139;28;20202;-69
2020/12/15 09:05:57;;;;;;;0.30;0.30;;;7.60;99.90;;;;;;5054441;28;20636;-68
2020/12/15 09:08:27;;;;;;;0.30;0.30;;;7.60;99.90;;;;;;5055834;28;20215;-69
2020/12/15 09:10:57;;;;;;;0.32;0.32;;;7.60;99.90;;;;;;5055305;28;20497;-67
2020/12/15 09:13:23;;;;;;;0.50;0.50;;;7.60;99.90;;;;;;5054848;28;20636;-69
2020/12/15 09:15:55;;;;;;;0.30;0.30;;;7.60;99.90;;;;;;5055693;28;20174;-70
2020/12/15 09:18:34;;;;;;;0.30;0.30;;;7.60;99.90;;;;;;5054389;28;20176;-69
2020/12/15 09:21:10;;;;;;;0.30;0.30;;;7.60;99.90;;;;;;5055037;28;20225;-69
2020/12/15 09:23:36;;;;;;;0.40;0.40;;;7.60;99.90;;;;;;5055459;28;20166;-70
2020/12/15 09:26:01;;;;;;;0.30;0.30;;;7.60;99.90;;;;;;5055751;28;20171;-68
2020/12/15 09:28:28;;;;;;;0.93;0.93;;;7.60;99.90;;;;;;5049742;28;20425;-68
2020/12/15 09:30:54;;;;;;;0.30;0.30;;;7.70;99.90;;;;;;5034892;28;20181;-69
2020/12/15 09:33:20;;;;;;;0.30;0.30;;;7.60;99.90;;;;;;5035303;28;20196;-68
2020/12/15 09:35:47;;;;;;;0.30;0.30;;;7.70;99.90;;;;;;5035395;28;20213;-70
2020/12/15 09:38:13;;;;;;;0.75;0.75;;;7.70;99.90;;;;;;5051124;28;20610;-68
2020/12/15 09:40:39;;;;;;;0.40;0.30;;;7.70;99.90;;;;;;5054333;28;20170;-68
2020/12/15 09:43:04;;;;;;;0.30;0.30;;;7.70;99.90;;;;;;5054378;28;20196;-69
2020/12/15 09:45:30;;;;;;;0.50;0.50;;;7.70;99.90;;;;;;5054334;28;20174;-70
2020/12/15 09:47:59;;;;;;;0.30;0.30;;;7.80;99.90;;;;;;5053075;28;20265;-69
2020/12/15 09:50:25;;;;;;;0.30;0.30;;;7.80;99.90;;;;;;5053750;28;20641;-69
2020/12/15 09:52:51;;;;;;;0.30;0.30;;;7.90;99.90;;;;;;5039025;28;20211;-69
2020/12/15 09:55:17;;;;;;;0.30;0.30;;;7.80;99.90;;;;;;5035043;28;20695;-70
2020/12/15 09:57:42;;;;;;;0.30;0.30;;;7.80;99.90;;;;;;5033658;28;20733;-69
2020/12/15 10:00:08;;;;;;;0.40;0.40;;;7.80;99.90;;;;;;5034487;28;20164;-68
2020/12/15 10:02:33;;;;;;;0.30;0.30;;;7.90;99.90;;;;;;5034582;28;20287;-70
2020/12/15 10:04:59;;;;;;;0.60;0.60;;;7.90;99.90;;;;;;5034785;28;20168;-71
2020/12/15 10:07:25;;;;;;;0.30;0.20;;;8.10;99.90;;;;;;5048019;28;20184;-71
2020/12/15 10:09:54;;;;;;;0.30;0.20;;;8.10;99.90;;;;;;5054428;28;20179;-72
2020/12/15 10:12:20;;;;;;;0.32;0.32;;;8.20;99.90;;;;;;5053246;28;20280;-71
2020/12/15 10:14:46;;;;;;;0.40;0.38;;;8.20;99.90;;;;;;5054670;28;20270;-70
2020/12/15 10:17:12;;;;;;;0.30;0.30;;;8.30;99.90;;;;;;5054311;28;20296;-70
2020/12/15 10:19:38;;;;;;;0.87;0.87;;;8.20;99.90;;;;;;5054236;28;20235;-72
2020/12/15 10:22:04;;;;;;;0.30;0.30;;;8.20;99.90;;;;;;5039653;28;20216;-71
2020/12/15 10:24:29;;;;;;;0.50;0.50;;;8.30;99.90;;;;;;5034316;28;20165;-69
2020/12/15 10:26:55;;;;;;;0.40;0.40;;;8.20;99.90;;;;;;5034302;28;20642;-70
2020/12/15 10:29:23;;;;;;;0.40;0.40;;;8.30;99.90;;;;;;5037197;28;20178;-70
2020/12/15 10:31:49;;;;;;;0.30;0.30;;;8.40;99.90;;;;;;5053730;28;20677;-72
2020/12/15 10:34:15;;;;;;;0.30;0.20;;;8.40;99.90;;;;;;5054288;28;20186;-74
2020/12/15 10:36:40;;;;;;;1.13;1.05;;;8.40;99.90;;;;;;5053968;28;20458;-72
2020/12/15 10:39:06;;;;;;;0.30;0.30;;;8.50;99.90;;;;;;5053720;28;20651;-72
2020/12/15 10:41:36;;;;;;;0.30;0.30;;;8.50;99.90;;;;;;5041643;28;20441;-71
2020/12/15 10:44:02;;;;;;;0.47;0.47;;;8.50;99.90;;;;;;5033558;28;20173;-72
2020/12/15 10:46:28;;;;;;;0.30;0.30;;;8.60;99.90;;;;;;5034137;28;20184;-71
2020/12/15 10:48:54;;;;;;;0.40;0.40;;;8.70;99.90;;;;;;5034126;28;20419;-72
2020/12/15 10:51:25;;;;;;;0.30;0.20;;;8.70;99.90;;;;;;5045677;28;20658;-70
2020/12/15 10:53:51;;;;;;;0.60;0.60;;;8.70;99.90;;;;;;5033813;28;20914;-69
2020/12/15 10:56:18;;;;;;;0.90;0.90;;;8.80;99.90;;;;;;5032464;28;20214;-73
2020/12/15 10:58:43;;;;;;;0.30;0.30;;;8.90;99.90;;;;;;5032466;28;20190;-75
2020/12/15 11:01:11;;;;;;;0.80;0.80;;;9.00;99.90;;;;;;5031899;28;20610;-71
2020/12/15 11:03:36;;;;;;;0.30;0.30;;;9.20;99.90;;;;;;5033748;28;20166;-75
2020/12/15 11:06:03;;;;;;;0.43;0.43;;;9.30;99.90;;;;;;5033396;28;20597;-72
2020/12/15 11:08:29;;;;;;;0.30;0.30;;;9.40;99.90;;;;;;5033258;28;20257;-74
2020/12/15 11:10:55;;;;;;;0.40;0.40;;;9.40;99.90;;;;;;5033159;28;20205;-72
2020/12/15 11:13:21;;;;;;;0.30;0.30;;;9.40;99.90;;;;;;5044685;28;20165;-73
2020/12/15 11:15:47;;;;;;;0.45;0.45;;;9.50;99.90;;;;;;5052262;28;20639;-74
2020/12/15 11:18:12;;;;;;;0.30;0.30;;;9.60;99.90;;;;;;5053377;28;20174;-75
2020/12/15 11:20:38;;;;;;;1.03;1.03;;;9.60;99.90;;;;;;5053149;28;20181;-74
2020/12/15 11:23:05;;;;;;;0.73;0.73;;;9.60;99.90;;;;;;5051935;28;20702;-72
2020/12/15 11:25:31;;;;;;;0.30;0.30;;;9.60;99.90;;;;;;5053348;28;20248;-75
2020/12/15 11:27:57;;;;;;;0.40;0.40;;;9.70;99.90;;;;;;5051132;28;20231;-74
2020/12/15 11:30:23;;;;;;;0.30;0.30;;;9.60;99.90;;;;;;5052788;28;20594;-74
2020/12/15 11:32:49;;;;;;;1.03;0.87;;;9.60;99.90;;;;;;5053145;28;20189;-69
2020/12/15 11:35:15;;;;;;;0.43;0.43;;;9.60;99.90;;;;;;5050476;28;20415;-69
2020/12/15 11:37:43;;;;;;;0.30;0.30;;;9.50;99.90;;;;;;5032963;28;20209;-69
2020/12/15 11:40:10;;;;;;;0.30;0.30;;;9.40;99.90;;;;;;5032788;28;20409;-69
2020/12/15 11:42:37;;;;;;;0.30;0.20;;;9.50;99.90;;;;;;5033187;28;20778;-68
2020/12/15 11:45:06;;;;;;;0.30;0.20;;;9.40;99.90;;;;;;5033233;28;20222;-69
2020/12/15 11:47:32;;;;;;;0.30;0.30;;;9.50;99.90;;;;;;5033027;28;20205;-68
2020/12/15 11:49:59;;;;;;;0.30;0.30;;;9.40;99.90;;;;;;5033281;28;20178;-69
2020/12/15 11:52:25;;;;;;;1.75;0.98;;;9.40;99.90;;;;;;5036316;28;20571;-69
2020/12/15 11:54:51;;;;;;;0.40;0.40;;;9.30;99.90;;;;;;5033058;28;20166;-69
2020/12/15 11:57:18;;;;;;;0.73;0.73;;;9.30;99.90;;;;;;5032823;28;20193;-70
2020/12/15 11:59:44;;;;;;;0.30;0.30;;;9.30;99.90;;;;;;5032737;28;20527;-69
2020/12/15 12:02:12;;;;;;;0.70;0.70;;;9.40;99.90;;;;;;5031395;28;20289;-70
2020/12/15 12:04:38;;;;;;;0.40;0.40;;;9.30;99.90;;;;;;5045287;28;20422;-69
2020/12/15 12:07:09;;;;;;;0.30;0.20;;;9.40;99.90;;;;;;5052293;28;20201;-69
2020/12/15 12:09:36;;;;;;;0.30;0.30;;;9.40;99.90;;;;;;5053087;28;20173;-69
2020/12/15 12:12:02;;;;;;;0.30;0.30;;;9.40;99.90;;;;;;5052477;28;20196;-70
2020/12/15 12:14:28;;;;;;;0.30;0.20;;;9.40;99.90;;;;;;5041702;28;20209;-69
2020/12/15 12:16:54;;;;;;;0.30;0.30;;;9.40;99.90;;;;;;5032807;28;20700;-70
2020/12/15 12:19:19;;;;;;;0.37;0.37;;;9.40;99.90;;;;;;5033004;28;20171;-68
2020/12/15 12:21:45;;;;;;;0.40;0.40;;;9.40;99.90;;;;;;5035248;28;20193;-68
2020/12/15 12:24:11;;;;;;;0.30;0.30;;;9.40;99.90;;;;;;5036576;28;20169;-70
2020/12/15 12:26:37;;;;;;;0.50;0.50;;;9.40;99.90;;;;;;5035350;28;20182;-72
2020/12/15 12:29:03;;;;;;;0.47;0.47;;;9.50;99.90;;;;;;5045625;28;20632;-70
2020/12/15 12:31:29;;;;;;;0.50;0.50;;;9.50;99.90;;;;;;5055838;28;20461;-64
2020/12/15 12:33:55;;;;;;;0.30;0.30;;;9.50;99.90;;;;;;5056271;28;20180;-64
2020/12/15 12:36:21;;;;;;;0.30;0.30;;;9.50;99.90;;;;;;5056105;28;20204;-67
2020/12/15 12:38:46;;;;;;;0.30;0.30;;;9.50;99.90;;;;;;5056212;28;20413;-66
2020/12/15 12:41:16;;;;;;;0.40;0.40;;;9.50;99.90;;;;;;5054693;28;20183;-67
2020/12/15 12:43:42;;;;;;;0.30;0.30;;;9.60;99.90;;;;;;5045169;28;20174;-65
2020/12/15 12:46:13;;;;;;;0.30;0.30;;;9.60;99.90;;;;;;5034995;28;20162;-68
2020/12/15 12:48:39;;;;;;;0.30;0.30;;;9.60;99.90;;;;;;5036188;28;20182;-65
2020/12/15 12:51:05;;;;;;;0.30;0.30;;;9.60;99.90;;;;;;5035440;28;20647;-67
2020/12/15 12:53:30;;;;;;;0.40;0.40;;;9.70;99.90;;;;;;5034907;28;20194;-66
2020/12/15 12:55:56;;;;;;;0.30;0.30;;;9.70;99.90;;;;;;5038686;28;20636;-68
2020/12/15 12:58:22;;;;;;;0.40;0.40;;;9.70;99.90;;;;;;5055176;28;20686;-65